sensor_id;sensor_type;location;lat;lon;timestamp;pressure;altitude;pressure_sealevel;temperature;humidity
81005;BME280;70472;47.592;17.640;2023-10-13T00:00:25;99992.56;;;15.33;94.30
81005;BME280;70472;47.592;17.640;2023-10-13T00:00:57;99993.03;;;15.37;94.24
81005;BME280;70472;47.592;17.640;2023-10-13T00:01:31;100002.00;;;15.44;93.74
81005;BME280;70472;47.592;17.640;2023-10-13T00:02:03;100005.31;;;15.46;93.69
81005;BME280;70472;47.592;17.640;2023-10-13T00:02:36;100003.88;;;15.50;93.31
81005;BME280;70472;47.592;17.640;2023-10-13T00:03:09;100001.19;;;15.50;93.45
81005;BME280;70472;47.592;17.640;2023-10-13T00:03:41;100003.69;;;15.52;94.13
81005;BME280;70472;47.592;17.640;2023-10-13T00:04:14;100004.50;;;15.52;93.60
81005;BME280;70472;47.592;17.640;2023-10-13T00:04:46;100002.00;;;15.50;94.43
81005;BME280;70472;47.592;17.640;2023-10-13T00:05:19;100004.72;;;15.50;94.37
81005;BME280;70472;47.592;17.640;2023-10-13T00:05:51;100008.88;;;15.53;93.79
81005;BME280;70472;47.592;17.640;2023-10-13T00:06:23;99999.06;;;15.45;93.89
81005;BME280;70472;47.592;17.640;2023-10-13T00:06:56;100003.63;;;15.38;93.90
81005;BME280;70472;47.592;17.640;2023-10-13T00:07:31;99995.75;;;15.43;93.39
81005;BME280;70472;47.592;17.640;2023-10-13T00:08:05;99996.59;;;15.50;93.34
81005;BME280;70472;47.592;17.640;2023-10-13T00:08:37;99998.69;;;15.48;92.96
81005;BME280;70472;47.592;17.640;2023-10-13T00:09:09;99995.78;;;15.50;93.02
81005;BME280;70472;47.592;17.640;2023-10-13T00:09:42;100000.34;;;15.49;94.05
81005;BME280;70472;47.592;17.640;2023-10-13T00:10:14;99992.00;;;15.44;93.92
81005;BME280;70472;47.592;17.640;2023-10-13T00:10:47;99994.50;;;15.46;93.54
81005;BME280;70472;47.592;17.640;2023-10-13T00:11:19;99992.22;;;15.43;94.40
81005;BME280;70472;47.592;17.640;2023-10-13T00:11:52;99993.47;;;15.47;94.48
81005;BME280;70472;47.592;17.640;2023-10-13T00:12:25;99989.31;;;15.44;93.75
81005;BME280;70472;47.592;17.640;2023-10-13T00:12:57;99990.97;;;15.45;94.81
81005;BME280;70472;47.592;17.640;2023-10-13T00:13:30;99984.94;;;15.43;94.60
81005;BME280;70472;47.592;17.640;2023-10-13T00:14:03;99991.59;;;15.47;94.42
81005;BME280;70472;47.592;17.640;2023-10-13T00:14:35;99995.75;;;15.43;94.93
81005;BME280;70472;47.592;17.640;2023-10-13T00:15:08;99989.94;;;15.46;95.99
81005;BME280;70472;47.592;17.640;2023-10-13T00:15:46;99989.75;;;15.48;95.88
81005;BME280;70472;47.592;17.640;2023-10-13T00:16:21;99997.22;;;15.53;95.17
81005;BME280;70472;47.592;17.640;2023-10-13T00:16:53;99995.56;;;15.52;95.55
81005;BME280;70472;47.592;17.640;2023-10-13T00:17:26;99993.31;;;15.55;95.88
81005;BME280;70472;47.592;17.640;2023-10-13T00:17:58;99987.69;;;15.57;96.13
81005;BME280;70472;47.592;17.640;2023-10-13T00:18:32;99981.66;;;15.55;96.39
81005;BME280;70472;47.592;17.640;2023-10-13T00:19:04;99984.97;;;15.57;96.58
81005;BME280;70472;47.592;17.640;2023-10-13T00:19:38;99982.91;;;15.59;96.46
81005;BME280;70472;47.592;17.640;2023-10-13T00:20:11;99981.03;;;15.59;96.77
81005;BME280;70472;47.592;17.640;2023-10-13T00:20:43;99973.34;;;15.56;95.95
81005;BME280;70472;47.592;17.640;2023-10-13T00:21:16;99981.69;;;15.61;96.13
81005;BME280;70472;47.592;17.640;2023-10-13T00:21:49;99975.44;;;15.61;96.65
81005;BME280;70472;47.592;17.640;2023-10-13T00:22:21;99971.69;;;15.62;96.78
81005;BME280;70472;47.592;17.640;2023-10-13T00:22:54;99982.13;;;15.65;96.16
81005;BME280;70472;47.592;17.640;2023-10-13T00:23:26;99972.34;;;15.64;95.54
81005;BME280;70472;47.592;17.640;2023-10-13T00:24:01;99975.88;;;15.64;96.39
81005;BME280;70472;47.592;17.640;2023-10-13T00:24:35;99975.72;;;15.66;95.81
81005;BME280;70472;47.592;17.640;2023-10-13T00:25:07;99978.59;;;15.64;95.78
81005;BME280;70472;47.592;17.640;2023-10-13T00:25:40;99979.41;;;15.65;96.45
81005;BME280;70472;47.592;17.640;2023-10-13T00:26:12;99982.13;;;15.65;96.35
81005;BME280;70472;47.592;17.640;2023-10-13T00:26:45;99980.06;;;15.67;96.59
81005;BME280;70472;47.592;17.640;2023-10-13T00:27:21;99982.34;;;15.70;96.01
81005;BME280;70472;47.592;17.640;2023-10-13T00:27:55;99979.25;;;15.66;96.30
81005;BME280;70472;47.592;17.640;2023-10-13T00:28:27;99973.41;;;15.69;96.73
81005;BME280;70472;47.592;17.640;2023-10-13T00:29:03;99975.50;;;15.74;95.86
81005;BME280;70472;47.592;17.640;2023-10-13T00:29:35;99976.34;;;15.74;95.70
81005;BME280;70472;47.592;17.640;2023-10-13T00:30:08;99976.75;;;15.71;95.81
81005;BME280;70472;47.592;17.640;2023-10-13T00:30:40;99971.97;;;15.73;96.17
81005;BME280;70472;47.592;17.640;2023-10-13T00:31:13;99971.34;;;15.71;96.01
81005;BME280;70472;47.592;17.640;2023-10-13T00:31:45;99962.19;;;15.66;96.38
81005;BME280;70472;47.592;17.640;2023-10-13T00:32:18;99970.28;;;15.66;97.51
81005;BME280;70472;47.592;17.640;2023-10-13T00:32:52;99970.47;;;15.64;97.25
81005;BME280;70472;47.592;17.640;2023-10-13T00:33:25;99971.34;;;15.71;96.76
81005;BME280;70472;47.592;17.640;2023-10-13T00:33:57;99969.88;;;15.75;97.02
81005;BME280;70472;47.592;17.640;2023-10-13T00:34:30;99973.03;;;15.79;96.36
81005;BME280;70472;47.592;17.640;2023-10-13T00:35:02;99973.66;;;15.81;96.41
81005;BME280;70472;47.592;17.640;2023-10-13T00:35:35;99974.31;;;15.83;96.95
81005;BME280;70472;47.592;17.640;2023-10-13T00:36:08;99976.34;;;15.81;96.94
81005;BME280;70472;47.592;17.640;2023-10-13T00:36:41;99983.88;;;15.86;97.29
81005;BME280;70472;47.592;17.640;2023-10-13T00:37:14;99981.16;;;15.86;96.99
81005;BME280;70472;47.592;17.640;2023-10-13T00:37:46;99981.78;;;15.88;96.69
81005;BME280;70472;47.592;17.640;2023-10-13T00:38:19;99988.66;;;15.90;97.46
81005;BME280;70472;47.592;17.640;2023-10-13T00:38:51;99989.91;;;15.88;96.71
81005;BME280;70472;47.592;17.640;2023-10-13T00:39:23;99989.72;;;15.89;96.43
81005;BME280;70472;47.592;17.640;2023-10-13T00:39:56;99997.19;;;15.87;97.40
81005;BME280;70472;47.592;17.640;2023-10-13T00:40:28;99996.34;;;15.87;96.29
81005;BME280;70472;47.592;17.640;2023-10-13T00:41:01;99989.06;;;15.87;96.42
81005;BME280;70472;47.592;17.640;2023-10-13T00:41:33;99997.38;;;15.86;96.64
81005;BME280;70472;47.592;17.640;2023-10-13T00:42:06;99995.31;;;15.88;97.23
81005;BME280;70472;47.592;17.640;2023-10-13T00:42:38;99995.97;;;15.90;97.96
81005;BME280;70472;47.592;17.640;2023-10-13T00:43:12;99993.66;;;15.93;97.32
81005;BME280;70472;47.592;17.640;2023-10-13T00:43:48;99990.75;;;15.95;97.52
81005;BME280;70472;47.592;17.640;2023-10-13T00:44:20;100005.31;;;15.94;96.97
81005;BME280;70472;47.592;17.640;2023-10-13T00:44:52;99998.03;;;15.94;97.84
81005;BME280;70472;47.592;17.640;2023-10-13T00:45:26;99999.72;;;15.95;97.86
81005;BME280;70472;47.592;17.640;2023-10-13T00:46:01;100003.03;;;15.97;96.92
81005;BME280;70472;47.592;17.640;2023-10-13T00:46:36;100008.44;;;15.97;97.75
81005;BME280;70472;47.592;17.640;2023-10-13T00:47:10;100011.78;;;15.99;96.82
81005;BME280;70472;47.592;17.640;2023-10-13T00:47:44;100011.38;;;15.96;97.61
81005;BME280;70472;47.592;17.640;2023-10-13T00:48:17;100012.19;;;15.96;97.19
81005;BME280;70472;47.592;17.640;2023-10-13T00:48:50;100014.47;;;15.99;97.18
81005;BME280;70472;47.592;17.640;2023-10-13T00:49:23;100012.81;;;15.98;97.86
81005;BME280;70472;47.592;17.640;2023-10-13T00:49:55;100016.16;;;16.00;97.83
81005;BME280;70472;47.592;17.640;2023-10-13T00:50:28;100009.72;;;16.01;97.64
81005;BME280;70472;47.592;17.640;2023-10-13T00:51:06;100011.38;;;16.02;97.32
81005;BME280;70472;47.592;17.640;2023-10-13T00:51:38;100010.72;;;16.00;98.00
81005;BME280;70472;47.592;17.640;2023-10-13T00:52:11;100002.63;;;16.00;98.15
81005;BME280;70472;47.592;17.640;2023-10-13T00:52:45;100006.78;;;15.96;97.80
81005;BME280;70472;47.592;17.640;2023-10-13T00:53:18;100000.94;;;15.99;98.07
81005;BME280;70472;47.592;17.640;2023-10-13T00:53:51;100001.59;;;16.01;98.25
81005;BME280;70472;47.592;17.640;2023-10-13T00:54:23;99998.91;;;16.01;97.53
81005;BME280;70472;47.592;17.640;2023-10-13T00:54:56;99990.97;;;16.00;97.38
81005;BME280;70472;47.592;17.640;2023-10-13T00:55:29;99990.56;;;16.03;98.20
81005;BME280;70472;47.592;17.640;2023-10-13T00:56:02;99995.56;;;16.06;97.90
81005;BME280;70472;47.592;17.640;2023-10-13T00:56:34;99994.31;;;16.09;97.49
81005;BME280;70472;47.592;17.640;2023-10-13T00:57:09;99994.13;;;16.10;97.92
81005;BME280;70472;47.592;17.640;2023-10-13T00:57:43;99990.97;;;16.07;98.17
81005;BME280;70472;47.592;17.640;2023-10-13T00:58:17;99989.97;;;16.08;97.37
81005;BME280;70472;47.592;17.640;2023-10-13T00:58:50;99985.56;;;16.07;97.83
81005;BME280;70472;47.592;17.640;2023-10-13T00:59:24;99994.94;;;16.11;97.41
81005;BME280;70472;47.592;17.640;2023-10-13T00:59:57;99991.84;;;16.14;98.03
81005;BME280;70472;47.592;17.640;2023-10-13T01:00:30;99996.00;;;16.10;98.07
81005;BME280;70472;47.592;17.640;2023-10-13T01:01:04;99988.69;;;16.10;97.07
81005;BME280;70472;47.592;17.640;2023-10-13T01:01:36;99988.91;;;16.09;96.72
81005;BME280;70472;47.592;17.640;2023-10-13T01:02:09;99990.56;;;16.10;97.34
81005;BME280;70472;47.592;17.640;2023-10-13T01:02:41;99988.91;;;16.09;96.78
81005;BME280;70472;47.592;17.640;2023-10-13T01:03:13;99993.06;;;16.11;97.68
81005;BME280;70472;47.592;17.640;2023-10-13T01:03:51;99992.69;;;16.14;97.66
81005;BME280;70472;47.592;17.640;2023-10-13T01:04:24;99992.47;;;16.16;97.61
81005;BME280;70472;47.592;17.640;2023-10-13T01:04:57;99991.41;;;16.17;97.35
81005;BME280;70472;47.592;17.640;2023-10-13T01:05:30;99997.47;;;16.19;97.56
81005;BME280;70472;47.592;17.640;2023-10-13T01:06:03;99987.66;;;16.18;96.75
81005;BME280;70472;47.592;17.640;2023-10-13T01:06:35;99988.31;;;16.20;97.54
81005;BME280;70472;47.592;17.640;2023-10-13T01:07:08;99992.69;;;16.21;96.19
81005;BME280;70472;47.592;17.640;2023-10-13T01:07:40;99992.69;;;16.21;96.23
81005;BME280;70472;47.592;17.640;2023-10-13T01:08:12;99994.56;;;16.20;96.67
81005;BME280;70472;47.592;17.640;2023-10-13T01:08:48;99988.94;;;16.22;96.22
81005;BME280;70472;47.592;17.640;2023-10-13T01:09:20;99999.53;;;16.23;96.88
81005;BME280;70472;47.592;17.640;2023-10-13T01:09:53;99996.00;;;16.16;96.81
81005;BME280;70472;47.592;17.640;2023-10-13T01:10:25;99993.28;;;16.10;97.34
81005;BME280;70472;47.592;17.640;2023-10-13T01:10:58;99993.50;;;16.15;96.97
81005;BME280;70472;47.592;17.640;2023-10-13T01:11:32;99989.31;;;16.12;96.90
81005;BME280;70472;47.592;17.640;2023-10-13T01:12:05;99994.72;;;16.12;97.65
81005;BME280;70472;47.592;17.640;2023-10-13T01:12:37;99995.16;;;16.16;96.40
81005;BME280;70472;47.592;17.640;2023-10-13T01:13:11;99994.34;;;16.15;96.47
81005;BME280;70472;47.592;17.640;2023-10-13T01:13:44;99989.75;;;16.16;96.41
81005;BME280;70472;47.592;17.640;2023-10-13T01:14:16;99991.00;;;16.13;96.97
81005;BME280;70472;47.592;17.640;2023-10-13T01:14:48;99987.66;;;16.11;97.60
81005;BME280;70472;47.592;17.640;2023-10-13T01:15:21;99993.28;;;16.10;97.55
81005;BME280;70472;47.592;17.640;2023-10-13T01:15:53;99991.84;;;16.14;97.54
81005;BME280;70472;47.592;17.640;2023-10-13T01:16:26;99986.00;;;16.17;97.70
81005;BME280;70472;47.592;17.640;2023-10-13T01:16:58;99983.94;;;16.19;96.87
81005;BME280;70472;47.592;17.640;2023-10-13T01:17:32;99999.13;;;16.20;97.50
81005;BME280;70472;47.592;17.640;2023-10-13T01:18:08;99988.50;;;16.18;97.25
81005;BME280;70472;47.592;17.640;2023-10-13T01:18:41;99989.97;;;16.21;97.70
81005;BME280;70472;47.592;17.640;2023-10-13T01:19:16;99989.75;;;16.22;98.17
81005;BME280;70472;47.592;17.640;2023-10-13T01:19:49;99986.84;;;16.24;98.01
81005;BME280;70472;47.592;17.640;2023-10-13T01:20:21;99984.94;;;16.18;97.94
81005;BME280;70472;47.592;17.640;2023-10-13T01:20:54;99981.84;;;16.21;97.76
81005;BME280;70472;47.592;17.640;2023-10-13T01:21:27;99979.16;;;16.21;97.65
81005;BME280;70472;47.592;17.640;2023-10-13T01:21:59;99973.72;;;16.21;97.14
81005;BME280;70472;47.592;17.640;2023-10-13T01:22:32;99987.88;;;16.23;96.91
81005;BME280;70472;47.592;17.640;2023-10-13T01:23:10;99981.25;;;16.25;97.55
81005;BME280;70472;47.592;17.640;2023-10-13T01:23:44;99981.25;;;16.25;96.49
81005;BME280;70472;47.592;17.640;2023-10-13T01:24:16;99987.28;;;16.27;96.45
81005;BME280;70472;47.592;17.640;2023-10-13T01:24:49;99991.22;;;16.25;96.67
81005;BME280;70472;47.592;17.640;2023-10-13T01:25:25;99999.34;;;16.25;96.86
81005;BME280;70472;47.592;17.640;2023-10-13T01:25:57;99995.78;;;16.24;96.74
81005;BME280;70472;47.592;17.640;2023-10-13T01:26:30;100000.19;;;16.25;97.64
81005;BME280;70472;47.592;17.640;2023-10-13T01:27:04;99994.97;;;16.24;96.97
81005;BME280;70472;47.592;17.640;2023-10-13T01:27:38;99998.09;;;16.27;97.31
81005;BME280;70472;47.592;17.640;2023-10-13T01:28:11;99993.50;;;16.28;97.06
81005;BME280;70472;47.592;17.640;2023-10-13T01:28:43;99998.94;;;16.28;97.11
81005;BME280;70472;47.592;17.640;2023-10-13T01:29:16;99999.97;;;16.27;97.84
81005;BME280;70472;47.592;17.640;2023-10-13T01:29:49;99999.97;;;16.27;97.95
81005;BME280;70472;47.592;17.640;2023-10-13T01:30:21;99996.66;;;16.25;97.33
81005;BME280;70472;47.592;17.640;2023-10-13T01:30:54;99994.34;;;16.28;98.12
81005;BME280;70472;47.592;17.640;2023-10-13T01:31:26;99996.84;;;16.30;97.98
81005;BME280;70472;47.592;17.640;2023-10-13T01:31:59;100002.25;;;16.30;97.75
81005;BME280;70472;47.592;17.640;2023-10-13T01:32:31;99998.53;;;16.31;98.07
81005;BME280;70472;47.592;17.640;2023-10-13T01:33:04;100000.19;;;16.32;98.31
81005;BME280;70472;47.592;17.640;2023-10-13T01:33:37;99998.53;;;16.31;98.75
81005;BME280;70472;47.592;17.640;2023-10-13T01:34:09;100006.66;;;16.31;97.95
81005;BME280;70472;47.592;17.640;2023-10-13T01:34:41;99999.16;;;16.33;97.98
81005;BME280;70472;47.592;17.640;2023-10-13T01:35:14;100008.09;;;16.34;97.66
81005;BME280;70472;47.592;17.640;2023-10-13T01:35:46;100007.06;;;16.35;97.87
81005;BME280;70472;47.592;17.640;2023-10-13T01:36:20;99997.06;;;16.35;97.05
81005;BME280;70472;47.592;17.640;2023-10-13T01:36:55;100000.59;;;16.36;97.31
81005;BME280;70472;47.592;17.640;2023-10-13T01:37:27;100003.13;;;16.37;97.92
81005;BME280;70472;47.592;17.640;2023-10-13T01:38:00;100002.91;;;16.39;97.02
81005;BME280;70472;47.592;17.640;2023-10-13T01:38:33;99999.97;;;16.40;97.28
81005;BME280;70472;47.592;17.640;2023-10-13T01:39:07;100006.44;;;16.39;97.01
81005;BME280;70472;47.592;17.640;2023-10-13T01:39:40;100003.72;;;16.39;96.09
81005;BME280;70472;47.592;17.640;2023-10-13T01:40:12;100017.47;;;16.38;96.84
81005;BME280;70472;47.592;17.640;2023-10-13T01:40:45;100006.44;;;16.39;96.66
81005;BME280;70472;47.592;17.640;2023-10-13T01:41:18;100007.28;;;16.40;96.23
81005;BME280;70472;47.592;17.640;2023-10-13T01:41:51;100016.22;;;16.40;95.83
81005;BME280;70472;47.592;17.640;2023-10-13T01:42:23;100016.84;;;16.42;95.55
81005;BME280;70472;47.592;17.640;2023-10-13T01:42:56;100020.59;;;16.41;95.42
81005;BME280;70472;47.592;17.640;2023-10-13T01:43:28;100013.50;;;16.40;96.06
81005;BME280;70472;47.592;17.640;2023-10-13T01:44:01;100016.44;;;16.39;96.58
81005;BME280;70472;47.592;17.640;2023-10-13T01:44:33;100019.97;;;16.39;96.07
81005;BME280;70472;47.592;17.640;2023-10-13T01:45:06;100018.72;;;16.35;96.29
81005;BME280;70472;47.592;17.640;2023-10-13T01:45:40;100018.50;;;16.30;96.60
81005;BME280;70472;47.592;17.640;2023-10-13T01:46:13;100015.59;;;16.25;97.44
81005;BME280;70472;47.592;17.640;2023-10-13T01:46:45;100016.84;;;16.29;97.29
81005;BME280;70472;47.592;17.640;2023-10-13T01:47:18;100018.31;;;16.25;97.49
81005;BME280;70472;47.592;17.640;2023-10-13T01:47:50;100016.84;;;16.29;97.61
81005;BME280;70472;47.592;17.640;2023-10-13T01:48:22;100018.94;;;16.34;97.69
81005;BME280;70472;47.592;17.640;2023-10-13T01:48:55;100017.47;;;16.31;96.54
81005;BME280;70472;47.592;17.640;2023-10-13T01:49:27;100016.66;;;16.31;97.69
81005;BME280;70472;47.592;17.640;2023-10-13T01:50:00;100015.59;;;16.32;96.98
81005;BME280;70472;47.592;17.640;2023-10-13T01:50:35;100016.00;;;16.35;96.80
81005;BME280;70472;47.592;17.640;2023-10-13T01:51:08;100023.09;;;16.36;97.49
81005;BME280;70472;47.592;17.640;2023-10-13T01:51:41;100016.00;;;16.35;97.05
81005;BME280;70472;47.592;17.640;2023-10-13T01:52:14;100020.59;;;16.35;97.08
81005;BME280;70472;47.592;17.640;2023-10-13T01:52:47;100018.31;;;16.32;97.19
81005;BME280;70472;47.592;17.640;2023-10-13T01:53:19;100020.19;;;16.38;97.24
81005;BME280;70472;47.592;17.640;2023-10-13T01:53:52;100019.75;;;16.34;97.47
81005;BME280;70472;47.592;17.640;2023-10-13T01:54:24;100020.38;;;16.36;97.25
81005;BME280;70472;47.592;17.640;2023-10-13T01:54:57;100011.03;;;16.32;96.74
81005;BME280;70472;47.592;17.640;2023-10-13T01:55:30;100016.84;;;16.36;97.62
81005;BME280;70472;47.592;17.640;2023-10-13T01:56:04;100016.66;;;16.37;96.58
81005;BME280;70472;47.592;17.640;2023-10-13T01:56:36;100017.66;;;16.36;96.63
81005;BME280;70472;47.592;17.640;2023-10-13T01:57:09;100012.25;;;16.36;97.35
81005;BME280;70472;47.592;17.640;2023-10-13T01:57:41;100011.25;;;16.37;97.87
81005;BME280;70472;47.592;17.640;2023-10-13T01:58:14;100012.91;;;16.38;97.10
81005;BME280;70472;47.592;17.640;2023-10-13T01:58:47;100014.13;;;16.36;97.14
81005;BME280;70472;47.592;17.640;2023-10-13T01:59:20;100006.44;;;16.39;97.94
81005;BME280;70472;47.592;17.640;2023-10-13T01:59:53;100007.88;;;16.42;96.96
81005;BME280;70472;47.592;17.640;2023-10-13T02:00:26;100013.50;;;16.40;97.47
81005;BME280;70472;47.592;17.640;2023-10-13T02:01:00;100008.53;;;16.44;97.33
81005;BME280;70472;47.592;17.640;2023-10-13T02:01:35;100009.34;;;16.44;96.58
81005;BME280;70472;47.592;17.640;2023-10-13T02:02:08;100005.59;;;16.45;96.59
81005;BME280;70472;47.592;17.640;2023-10-13T02:02:41;100001.63;;;16.41;95.85
81005;BME280;70472;47.592;17.640;2023-10-13T02:03:14;100009.16;;;16.39;96.45
81005;BME280;70472;47.592;17.640;2023-10-13T02:03:46;100006.00;;;16.42;96.58
81005;BME280;70472;47.592;17.640;2023-10-13T02:04:19;100006.00;;;16.42;96.00
81005;BME280;70472;47.592;17.640;2023-10-13T02:04:51;100005.59;;;16.39;96.54
81005;BME280;70472;47.592;17.640;2023-10-13T02:05:23;100003.50;;;16.41;96.47
81005;BME280;70472;47.592;17.640;2023-10-13T02:05:56;100005.19;;;16.42;96.53
81005;BME280;70472;47.592;17.640;2023-10-13T02:06:30;100006.00;;;16.42;96.51
81005;BME280;70472;47.592;17.640;2023-10-13T02:07:03;100008.31;;;16.45;96.33
81005;BME280;70472;47.592;17.640;2023-10-13T02:07:35;100008.53;;;16.44;95.38
81005;BME280;70472;47.592;17.640;2023-10-13T02:08:07;100002.06;;;16.45;96.26
81005;BME280;70472;47.592;17.640;2023-10-13T02:08:40;100004.78;;;16.45;96.44
81005;BME280;70472;47.592;17.640;2023-10-13T02:09:12;100007.88;;;16.42;96.21
81005;BME280;70472;47.592;17.640;2023-10-13T02:09:46;99995.38;;;16.41;95.45
81005;BME280;70472;47.592;17.640;2023-10-13T02:10:18;100001.03;;;16.39;95.73
81005;BME280;70472;47.592;17.640;2023-10-13T02:10:55;99993.50;;;16.41;95.32
81005;BME280;70472;47.592;17.640;2023-10-13T02:11:28;100000.41;;;16.44;95.80
81005;BME280;70472;47.592;17.640;2023-10-13T02:12:00;99996.88;;;16.43;95.87
81005;BME280;70472;47.592;17.640;2023-10-13T02:12:33;99997.69;;;16.44;94.99
81005;BME280;70472;47.592;17.640;2023-10-13T02:13:05;99992.47;;;16.42;95.24
81005;BME280;70472;47.592;17.640;2023-10-13T02:13:37;99991.84;;;16.40;96.02
81005;BME280;70472;47.592;17.640;2023-10-13T02:14:10;99990.81;;;16.41;95.29
81005;BME280;70472;47.592;17.640;2023-10-13T02:14:42;99988.09;;;16.35;95.48
81005;BME280;70472;47.592;17.640;2023-10-13T02:15:15;99989.75;;;16.36;96.26
81005;BME280;70472;47.592;17.640;2023-10-13T02:15:48;99992.91;;;16.39;95.92
81005;BME280;70472;47.592;17.640;2023-10-13T02:16:20;99992.28;;;16.37;96.12
81005;BME280;70472;47.592;17.640;2023-10-13T02:16:53;99989.56;;;16.37;96.32
81005;BME280;70472;47.592;17.640;2023-10-13T02:17:25;99990.19;;;16.33;95.92
81005;BME280;70472;47.592;17.640;2023-10-13T02:17:58;99984.78;;;16.26;96.80
81005;BME280;70472;47.592;17.640;2023-10-13T02:18:30;99994.78;;;16.32;96.41
81005;BME280;70472;47.592;17.640;2023-10-13T02:19:03;99990.19;;;16.33;95.64
81005;BME280;70472;47.592;17.640;2023-10-13T02:19:35;99990.19;;;16.33;96.64
81005;BME280;70472;47.592;17.640;2023-10-13T02:20:09;99983.50;;;16.28;95.96
81005;BME280;70472;47.592;17.640;2023-10-13T02:20:41;99990.41;;;16.31;96.89
81005;BME280;70472;47.592;17.640;2023-10-13T02:21:14;99981.84;;;16.34;95.94
81005;BME280;70472;47.592;17.640;2023-10-13T02:21:46;99981.03;;;16.34;97.08
81005;BME280;70472;47.592;17.640;2023-10-13T02:22:19;99979.38;;;16.33;96.92
81005;BME280;70472;47.592;17.640;2023-10-13T02:22:52;99976.03;;;16.37;96.64
81005;BME280;70472;47.592;17.640;2023-10-13T02:23:24;99988.53;;;16.38;95.70
81005;BME280;70472;47.592;17.640;2023-10-13T02:23:58;99979.38;;;16.39;96.03
81005;BME280;70472;47.592;17.640;2023-10-13T02:24:31;99986.44;;;16.40;95.74
81005;BME280;70472;47.592;17.640;2023-10-13T02:25:03;99981.47;;;16.37;96.76
81005;BME280;70472;47.592;17.640;2023-10-13T02:25:37;99974.78;;;16.40;95.79
81005;BME280;70472;47.592;17.640;2023-10-13T02:26:10;99986.22;;;16.42;95.76
81005;BME280;70472;47.592;17.640;2023-10-13T02:26:44;99979.78;;;16.43;96.62
81005;BME280;70472;47.592;17.640;2023-10-13T02:27:17;99985.41;;;16.41;96.06
81005;BME280;70472;47.592;17.640;2023-10-13T02:27:49;99988.75;;;16.43;95.67
81005;BME280;70472;47.592;17.640;2023-10-13T02:28:23;99995.59;;;16.46;95.63
81005;BME280;70472;47.592;17.640;2023-10-13T02:29:00;99987.69;;;16.44;95.90
81005;BME280;70472;47.592;17.640;2023-10-13T02:29:32;99992.06;;;16.45;95.48
81005;BME280;70472;47.592;17.640;2023-10-13T02:30:06;99989.16;;;16.47;95.64
81005;BME280;70472;47.592;17.640;2023-10-13T02:30:43;99993.50;;;16.48;96.07
81005;BME280;70472;47.592;17.640;2023-10-13T02:31:15;99994.78;;;16.45;96.96
81005;BME280;70472;47.592;17.640;2023-10-13T02:31:50;99992.28;;;16.44;96.63
81005;BME280;70472;47.592;17.640;2023-10-13T02:32:26;100000.41;;;16.37;96.75
81005;BME280;70472;47.592;17.640;2023-10-13T02:33:01;99995.59;;;16.39;96.44
81005;BME280;70472;47.592;17.640;2023-10-13T02:33:39;99991.84;;;16.40;96.46
81005;BME280;70472;47.592;17.640;2023-10-13T02:34:12;99995.59;;;16.39;96.68
81005;BME280;70472;47.592;17.640;2023-10-13T02:34:45;99994.34;;;16.42;96.30
81005;BME280;70472;47.592;17.640;2023-10-13T02:35:17;100002.06;;;16.45;96.45
81005;BME280;70472;47.592;17.640;2023-10-13T02:35:50;99996.03;;;16.43;96.51
81005;BME280;70472;47.592;17.640;2023-10-13T02:36:22;100003.50;;;16.41;96.39
81005;BME280;70472;47.592;17.640;2023-10-13T02:36:55;100004.16;;;16.43;96.38
81005;BME280;70472;47.592;17.640;2023-10-13T02:37:27;100007.28;;;16.46;97.05
81005;BME280;70472;47.592;17.640;2023-10-13T02:38:00;100002.06;;;16.45;96.58
81005;BME280;70472;47.592;17.640;2023-10-13T02:38:33;100003.13;;;16.37;97.94
81005;BME280;70472;47.592;17.640;2023-10-13T02:39:06;100000.41;;;16.37;98.23
81005;BME280;70472;47.592;17.640;2023-10-13T02:39:40;99996.44;;;16.33;97.48
81005;BME280;70472;47.592;17.640;2023-10-13T02:40:13;99999.75;;;16.35;98.15
81005;BME280;70472;47.592;17.640;2023-10-13T02:40:45;100003.13;;;16.37;98.76
81005;BME280;70472;47.592;17.640;2023-10-13T02:41:19;100000.41;;;16.37;97.88
81005;BME280;70472;47.592;17.640;2023-10-13T02:41:53;100009.75;;;16.41;98.33
81005;BME280;70472;47.592;17.640;2023-10-13T02:42:26;100009.34;;;16.44;97.49
81005;BME280;70472;47.592;17.640;2023-10-13T02:42:58;100003.72;;;16.46;98.27
81005;BME280;70472;47.592;17.640;2023-10-13T02:43:35;100011.03;;;16.45;97.16
81005;BME280;70472;47.592;17.640;2023-10-13T02:44:08;100007.28;;;16.46;97.72
81005;BME280;70472;47.592;17.640;2023-10-13T02:44:40;100003.50;;;16.47;97.42
81005;BME280;70472;47.592;17.640;2023-10-13T02:45:12;100002.69;;;16.47;97.23
81005;BME280;70472;47.592;17.640;2023-10-13T02:45:52;100006.88;;;16.43;97.12
81005;BME280;70472;47.592;17.640;2023-10-13T02:46:25;100006.66;;;16.38;97.44
81005;BME280;70472;47.592;17.640;2023-10-13T02:46:57;100008.53;;;16.37;98.04
81005;BME280;70472;47.592;17.640;2023-10-13T02:47:32;100002.47;;;16.35;98.93
81005;BME280;70472;47.592;17.640;2023-10-13T02:48:05;99999.38;;;16.38;99.34
81005;BME280;70472;47.592;17.640;2023-10-13T02:48:38;100000.19;;;16.39;98.31
81005;BME280;70472;47.592;17.640;2023-10-13T02:49:10;99998.31;;;16.39;99.23
81005;BME280;70472;47.592;17.640;2023-10-13T02:49:43;99991.47;;;16.43;99.10
81005;BME280;70472;47.592;17.640;2023-10-13T02:50:16;99998.53;;;16.44;98.46
81005;BME280;70472;47.592;17.640;2023-10-13T02:50:58;99994.78;;;16.45;98.42
81005;BME280;70472;47.592;17.640;2023-10-13T02:51:31;99994.38;;;16.48;99.04
81005;BME280;70472;47.592;17.640;2023-10-13T02:52:04;99990.63;;;16.49;98.04